Caldas Novas, Brazil
Current Conditions -  °F | °C
As of 8:00 AM on Sunday 21 Dec 2014 (Local Time) from SBUL Reporting Station
Broken Clouds Broken Clouds  
Wind Chill: 68°   Ceiling: 400
Heat Index: 68°   Visibility: 6mi
Dew Point: 66°   Wind: 9mph
Humidity: 94%   Direction: 10°N
Pressure: 30.03"   Gusts: NA
Location:  17.74°S, 48.62°W
Report Text: SBUL 211000Z 01008KT 9999 BKN004 20/19 Q1017
Loading
Personal Weather Stations






























Interactive Weather Map New forecast layout! Learn more

10-Day Weather Forecast

Advertisements
Track Severe Weather on mobile